createdAt,value
2018-03-03T00:02:09.081Z,-7.68
2018-03-03T00:04:36.596Z,-7.57
2018-03-03T00:07:04.118Z,-7.63
2018-03-03T00:09:32.474Z,-7.71
2018-03-03T00:11:59.994Z,-7.64
2018-03-03T00:14:27.526Z,-7.65
2018-03-03T00:16:55.062Z,-7.54
2018-03-03T00:19:22.620Z,-7.55
2018-03-03T00:21:51.061Z,-7.86
2018-03-03T00:24:18.580Z,-7.71
2018-03-03T00:26:46.113Z,-7.85
2018-03-03T00:29:13.641Z,-7.68
2018-03-03T00:31:42.249Z,-7.89
2018-03-03T00:34:09.776Z,-7.81
2018-03-03T00:36:37.310Z,-7.85
2018-03-03T00:39:04.869Z,-7.88
2018-03-03T00:41:32.385Z,-8.04
2018-03-03T00:43:59.911Z,-7.89
2018-03-03T00:46:27.445Z,-7.93
2018-03-03T00:48:54.981Z,-7.93
2018-03-03T00:51:22.505Z,-7.94
2018-03-03T00:53:50.029Z,-8.08
2018-03-03T00:56:17.564Z,-8.07
2018-03-03T00:58:45.081Z,-8.12
2018-03-03T01:01:12.599Z,-8.19
2018-03-03T01:03:40.125Z,-8.09
2018-03-03T01:06:07.654Z,-8.06
2018-03-03T01:08:35.469Z,-7.96
2018-03-03T01:11:02.992Z,-7.95
2018-03-03T01:13:30.520Z,-7.99
2018-03-03T01:15:58.037Z,-8.09
2018-03-03T01:18:25.564Z,-8.01
2018-03-03T01:20:53.102Z,-8.26
2018-03-03T01:23:20.696Z,-8.07
2018-03-03T01:25:48.202Z,-8.08
2018-03-03T01:28:15.716Z,-8.15
2018-03-03T01:30:43.251Z,-8.30
2018-03-03T01:33:10.777Z,-8.32
2018-03-03T01:35:38.298Z,-8.34
2018-03-03T01:38:05.824Z,-8.29
2018-03-03T01:40:33.460Z,-8.21
2018-03-03T01:43:00.986Z,-8.23
2018-03-03T01:45:28.505Z,-8.15
2018-03-03T01:47:56.050Z,-8.04
2018-03-03T01:50:23.570Z,-8.25
2018-03-03T01:52:52.017Z,-8.13
2018-03-03T01:55:19.538Z,-8.07
2018-03-03T01:57:47.654Z,-8.29
2018-03-03T02:00:15.174Z,-8.43
2018-03-03T02:02:42.696Z,-8.45
2018-03-03T02:05:10.215Z,-8.31
2018-03-03T02:07:37.746Z,-8.28
2018-03-03T02:10:05.269Z,-8.56
2018-03-03T02:12:32.801Z,-8.34
2018-03-03T02:15:02.025Z,-8.47
2018-03-03T02:17:29.554Z,-8.42
2018-03-03T02:19:58.204Z,-8.39
2018-03-03T02:22:25.727Z,-8.50
2018-03-03T02:24:53.263Z,-8.30
2018-03-03T02:27:20.786Z,-8.59
2018-03-03T02:29:48.329Z,-8.64
2018-03-03T02:32:15.861Z,-8.64
2018-03-03T02:34:43.388Z,-8.61
2018-03-03T02:37:10.920Z,-8.54
2018-03-03T02:39:38.489Z,-8.41
2018-03-03T02:42:06.014Z,-8.67
2018-03-03T02:44:33.546Z,-8.63
2018-03-03T02:47:01.079Z,-8.57
2018-03-03T02:49:29.325Z,-8.71
2018-03-03T02:51:56.854Z,-8.67
2018-03-03T02:54:24.396Z,-8.67
2018-03-03T02:56:51.954Z,-8.50
2018-03-03T02:59:20.106Z,-8.69
2018-03-03T03:01:47.646Z,-8.67
2018-03-03T03:04:15.883Z,-8.77
2018-03-03T03:06:43.412Z,-8.80
2018-03-03T03:09:10.939Z,-8.87
2018-03-03T03:11:38.471Z,-8.79
2018-03-03T03:14:06.004Z,-8.96
2018-03-03T03:16:33.599Z,-8.75
2018-03-03T03:19:01.101Z,-8.90
2018-03-03T03:21:28.630Z,-8.79
2018-03-03T03:23:56.169Z,-8.85
2018-03-03T03:26:24.653Z,-8.98
2018-03-03T03:28:52.179Z,-8.81
2018-03-03T03:31:19.704Z,-8.85
2018-03-03T03:33:47.262Z,-8.79
2018-03-03T03:36:14.786Z,-9.00
2018-03-03T03:38:42.317Z,-8.92
2018-03-03T03:41:09.846Z,-9.02
2018-03-03T03:43:38.072Z,-9.02
2018-03-03T03:46:05.601Z,-9.11
2018-03-03T03:48:33.116Z,-9.15
2018-03-03T03:51:00.650Z,-9.11
2018-03-03T03:53:28.176Z,-9.10
2018-03-03T03:55:56.361Z,-9.17
2018-03-03T03:58:23.888Z,-9.12
2018-03-03T04:00:52.015Z,-9.03
2018-03-03T04:03:19.548Z,-9.24
2018-03-03T04:05:47.079Z,-9.25
2018-03-03T04:08:14.596Z,-9.22
2018-03-03T04:10:42.129Z,-9.08
2018-03-03T04:13:09.652Z,-9.36
2018-03-03T04:15:37.509Z,-9.22
2018-03-03T04:18:05.038Z,-9.14
2018-03-03T04:20:32.704Z,-9.25
2018-03-03T04:23:00.232Z,-9.32
2018-03-03T04:25:27.777Z,-9.30
2018-03-03T04:27:55.700Z,-9.12
2018-03-03T04:30:23.227Z,-9.41
2018-03-03T04:32:51.229Z,-9.28
2018-03-03T04:35:18.753Z,-9.42
2018-03-03T04:37:46.826Z,-9.47
2018-03-03T04:40:14.341Z,-9.37
2018-03-03T04:42:41.879Z,-9.40
2018-03-03T04:45:09.405Z,-9.56
2018-03-03T04:47:36.942Z,-9.50
2018-03-03T04:50:04.477Z,-9.49
2018-03-03T04:52:32.010Z,-9.55
2018-03-03T04:54:59.569Z,-9.63
2018-03-03T04:57:27.106Z,-9.47
2018-03-03T05:03:12.325Z,-9.57
2018-03-03T05:05:45.454Z,-9.83
2018-03-03T05:11:09.879Z,-9.74
2018-03-03T05:13:47.294Z,-9.67
2018-03-03T05:16:19.031Z,-9.53
2018-03-03T05:18:52.138Z,-9.83
2018-03-03T05:24:38.572Z,-9.74
2018-03-03T05:30:23.112Z,-9.65
2018-03-03T05:32:56.486Z,-9.64
2018-03-03T05:38:32.619Z,-9.79
2018-03-03T05:44:11.001Z,-9.81
2018-03-03T05:46:44.505Z,-9.95
2018-03-03T05:49:17.744Z,-9.87
2018-03-03T05:54:57.001Z,-9.75
2018-03-03T05:57:31.085Z,-9.73
2018-03-03T06:00:04.784Z,-9.80
2018-03-03T06:02:38.003Z,-9.96
2018-03-03T06:05:11.081Z,-9.78
2018-03-03T06:07:44.332Z,-9.75
2018-03-03T06:10:13.359Z,-9.57
2018-03-03T06:12:40.885Z,-9.60
2018-03-03T06:15:08.420Z,-9.52
2018-03-03T06:17:35.969Z,-9.84
2018-03-03T06:20:03.523Z,-9.61
2018-03-03T06:22:31.039Z,-9.72
2018-03-03T06:24:58.901Z,-9.71
2018-03-03T06:27:26.443Z,-9.50
2018-03-03T06:29:53.969Z,-9.12
2018-03-03T06:32:21.498Z,-9.20
2018-03-03T06:34:49.640Z,-9.49
2018-03-03T06:37:17.166Z,-9.41
2018-03-03T06:39:44.717Z,-9.00
2018-03-03T06:42:12.248Z,-9.01
2018-03-03T06:44:39.781Z,-9.04
2018-03-03T06:47:07.313Z,-8.83
2018-03-03T06:49:34.834Z,-8.98
2018-03-03T06:52:02.363Z,-9.07
2018-03-03T06:54:30.236Z,-8.75
2018-03-03T06:56:57.762Z,-8.80
2018-03-03T06:59:25.298Z,-8.64
2018-03-03T07:01:52.827Z,-9.04
2018-03-03T07:04:20.368Z,-9.08
2018-03-03T07:06:47.906Z,-8.82
2018-03-03T07:09:16.284Z,-8.56
2018-03-03T07:11:44.547Z,-8.47
2018-03-03T07:14:12.085Z,-8.41
2018-03-03T07:16:40.084Z,-8.43
2018-03-03T07:19:07.626Z,-8.39
2018-03-03T07:21:35.156Z,-8.58
2018-03-03T07:24:02.685Z,-8.60
2018-03-03T07:26:30.221Z,-8.08
2018-03-03T07:28:57.746Z,-8.05
2018-03-03T07:31:25.270Z,-8.14
2018-03-03T07:33:52.789Z,-7.88
2018-03-03T07:36:20.332Z,-8.02
2018-03-03T07:38:47.885Z,-7.95
2018-03-03T07:41:15.426Z,-7.55
2018-03-03T07:43:42.956Z,-6.89
2018-03-03T07:46:10.478Z,-6.80
2018-03-03T07:48:37.996Z,-5.81
2018-03-03T07:51:05.525Z,-5.70
2018-03-03T07:53:33.062Z,-4.96
2018-03-03T07:56:00.584Z,-4.50
2018-03-03T08:01:32.657Z,-4.11
2018-03-03T08:04:00.205Z,-3.57
2018-03-03T08:06:27.730Z,-3.84
2018-03-03T08:08:55.261Z,-2.90
2018-03-03T08:11:22.785Z,-3.10
2018-03-03T08:13:50.519Z,-4.00
2018-03-03T08:16:18.062Z,-2.20
2018-03-03T08:18:45.598Z,-1.67
2018-03-03T08:21:13.125Z,-1.84
2018-03-03T08:23:40.664Z,-1.40
2018-03-03T08:26:08.204Z,-1.05
2018-03-03T08:28:35.719Z,-2.34
2018-03-03T08:31:03.246Z,0.25
2018-03-03T08:33:30.774Z,0.50
2018-03-03T08:35:59.231Z,0.99
2018-03-03T08:38:26.788Z,0.39
2018-03-03T08:40:54.322Z,-0.15
2018-03-03T08:43:21.911Z,0.69
2018-03-03T08:45:49.424Z,0.14
2018-03-03T08:48:16.952Z,1.06
2018-03-03T08:50:44.483Z,0.46
2018-03-03T08:53:12.006Z,1.75
2018-03-03T08:55:39.634Z,3.31
2018-03-03T08:58:07.828Z,4.58
2018-03-03T09:00:35.358Z,3.06
2018-03-03T09:03:02.899Z,0.88
2018-03-03T09:05:30.434Z,1.11
2018-03-03T09:07:57.959Z,1.55
2018-03-03T09:10:25.493Z,2.71
2018-03-03T09:12:53.013Z,-0.03
2018-03-03T09:15:21.374Z,3.24
2018-03-03T09:17:48.906Z,1.92
2018-03-03T09:20:16.432Z,0.99
2018-03-03T09:22:43.963Z,3.03
2018-03-03T09:25:12.169Z,1.79
2018-03-03T09:27:39.698Z,0.96
2018-03-03T09:30:07.221Z,2.84
2018-03-03T09:32:34.734Z,1.76
2018-03-03T09:35:03.157Z,2.07
2018-03-03T09:37:30.689Z,3.08
2018-03-03T09:39:58.219Z,6.37
2018-03-03T09:42:25.762Z,2.79
2018-03-03T09:44:53.292Z,3.62
2018-03-03T09:47:20.878Z,2.35
2018-03-03T09:49:48.417Z,2.40
2018-03-03T09:52:15.935Z,5.31
2018-03-03T09:54:43.464Z,5.50
2018-03-03T09:57:10.998Z,9.24
2018-03-03T09:59:39.401Z,6.08
2018-03-03T10:02:07.135Z,7.57
2018-03-03T10:04:34.673Z,9.92
2018-03-03T10:07:02.197Z,8.00
2018-03-03T10:09:29.737Z,8.24
2018-03-03T10:11:57.270Z,8.39
2018-03-03T10:14:24.851Z,3.24
2018-03-03T10:16:52.366Z,3.94
2018-03-03T10:19:19.890Z,2.29
2018-03-03T10:21:47.416Z,-2.66
2018-03-03T10:24:14.958Z,0.34
2018-03-03T10:26:43.199Z,1.02
2018-03-03T10:29:10.735Z,-1.60
2018-03-03T10:31:39.183Z,-0.69
2018-03-03T10:34:06.704Z,-1.56
2018-03-03T10:36:34.799Z,-2.59
2018-03-03T10:39:04.026Z,-0.82
2018-03-03T10:41:31.555Z,-1.10
2018-03-03T10:43:59.094Z,-1.29
2018-03-03T10:46:26.674Z,-2.18
2018-03-03T10:48:54.778Z,-3.15
2018-03-03T10:51:22.298Z,-1.81
2018-03-03T10:53:50.541Z,-1.65
2018-03-03T10:56:18.588Z,-1.36
2018-03-03T10:58:46.162Z,-0.88
2018-03-03T11:01:13.689Z,-1.83
2018-03-03T11:03:41.229Z,-2.84
2018-03-03T11:06:09.339Z,-2.76
2018-03-03T11:08:36.866Z,-2.12
2018-03-03T11:11:04.402Z,-2.05
2018-03-03T11:13:31.934Z,-3.24
2018-03-03T11:15:59.465Z,-3.01
2018-03-03T11:18:27.761Z,-2.41
2018-03-03T11:20:55.304Z,-3.00
2018-03-03T11:23:22.835Z,-1.81
2018-03-03T11:25:50.365Z,-2.85
2018-03-03T11:28:18.620Z,-2.95
2018-03-03T11:30:46.388Z,-2.52
2018-03-03T11:33:13.913Z,-3.00
2018-03-03T11:35:41.436Z,-2.72
2018-03-03T11:38:08.960Z,-2.23
2018-03-03T11:40:36.532Z,-2.51
2018-03-03T11:43:04.776Z,-2.56
2018-03-03T11:45:32.302Z,-3.23
2018-03-03T11:47:59.817Z,-2.66
2018-03-03T11:50:27.336Z,-2.61
2018-03-03T11:52:54.858Z,-2.07
2018-03-03T11:55:22.389Z,-2.54
2018-03-03T11:57:49.932Z,-2.20
2018-03-03T12:00:17.468Z,-2.35
2018-03-03T12:02:45.020Z,-2.32
2018-03-03T12:05:12.545Z,-1.79
2018-03-03T12:07:40.077Z,-2.32
2018-03-03T12:10:07.601Z,-1.99
2018-03-03T12:12:35.130Z,-1.54
2018-03-03T12:15:02.649Z,-2.08
2018-03-03T12:17:30.649Z,-2.25
2018-03-03T12:19:58.178Z,-2.19
2018-03-03T12:22:26.029Z,-2.55
2018-03-03T12:24:53.556Z,-2.22
2018-03-03T12:27:21.109Z,-2.33
2018-03-03T12:29:48.637Z,-1.78
2018-03-03T12:32:16.166Z,-1.97
2018-03-03T12:34:43.823Z,-2.31
2018-03-03T12:37:11.366Z,-2.73
2018-03-03T12:39:38.970Z,-2.04
2018-03-03T12:42:06.502Z,-1.62
2018-03-03T12:44:35.359Z,-1.95
2018-03-03T12:47:02.925Z,-1.60
2018-03-03T12:49:30.447Z,-1.99
2018-03-03T12:51:58.033Z,-1.42
2018-03-03T12:54:25.559Z,-1.42
2018-03-03T12:56:53.114Z,-1.19
2018-03-03T12:59:20.636Z,-1.69
2018-03-03T13:01:48.877Z,-1.47
2018-03-03T13:04:16.414Z,-2.05
2018-03-03T13:06:43.969Z,-1.59
2018-03-03T13:09:11.499Z,-1.74
2018-03-03T13:11:39.029Z,-1.59
2018-03-03T13:14:06.556Z,-1.52
2018-03-03T13:16:34.208Z,-1.44
2018-03-03T13:19:01.739Z,-1.31
2018-03-03T13:21:29.290Z,-1.53
2018-03-03T13:23:56.836Z,-1.20
2018-03-03T13:26:24.375Z,-1.69
2018-03-03T13:28:52.064Z,-1.36
2018-03-03T13:31:19.596Z,-1.40
2018-03-03T13:33:47.141Z,-1.52
2018-03-03T13:36:14.721Z,-1.71
2018-03-03T13:38:43.075Z,-1.55
2018-03-03T13:41:10.605Z,-1.45
2018-03-03T13:43:38.142Z,-1.73
2018-03-03T13:46:05.665Z,-2.05
2018-03-03T13:48:33.284Z,-1.48
2018-03-03T13:51:00.814Z,-1.81
2018-03-03T13:53:28.935Z,-1.19
2018-03-03T13:55:56.460Z,-1.81
2018-03-03T13:58:23.996Z,-1.30
2018-03-03T14:00:51.537Z,-1.34
2018-03-03T14:03:19.079Z,-1.66
2018-03-03T14:05:46.610Z,-1.49
2018-03-03T14:08:14.142Z,-1.22
2018-03-03T14:10:41.689Z,-1.14
2018-03-03T14:13:09.247Z,-1.72
2018-03-03T14:15:36.784Z,-2.03
2018-03-03T14:18:05.292Z,-1.66
2018-03-03T14:20:32.813Z,-1.60
2018-03-03T14:23:01.114Z,-1.75
2018-03-03T14:25:29.483Z,-1.61
2018-03-03T14:27:57.053Z,-1.60
2018-03-03T14:30:25.340Z,-1.59
2018-03-03T14:32:52.870Z,-1.50
2018-03-03T14:35:20.396Z,-1.47
2018-03-03T14:37:47.925Z,-1.44
2018-03-03T14:40:15.458Z,-1.57
2018-03-03T14:42:42.999Z,-1.58
2018-03-03T14:45:11.353Z,-1.76
2018-03-03T14:47:38.900Z,-1.75
2018-03-03T14:50:06.428Z,-1.75
2018-03-03T14:52:34.053Z,-1.57
2018-03-03T14:55:01.587Z,-1.56
2018-03-03T14:57:29.116Z,-1.75
2018-03-03T14:59:56.650Z,-1.67
2018-03-03T15:02:24.175Z,-1.30
2018-03-03T15:04:51.708Z,-1.78
2018-03-03T15:07:20.213Z,-1.67
2018-03-03T15:09:47.740Z,-1.98
2018-03-03T15:12:15.307Z,-1.80
2018-03-03T15:14:43.781Z,-2.10
2018-03-03T15:17:11.398Z,-1.85
2018-03-03T15:19:38.934Z,-1.74
2018-03-03T15:22:07.342Z,-1.79
2018-03-03T15:24:34.886Z,-1.72
2018-03-03T15:27:03.078Z,-1.50
2018-03-03T15:29:30.605Z,-1.56
2018-03-03T15:31:58.133Z,-1.67
2018-03-03T15:34:25.663Z,-1.86
2018-03-03T15:36:53.218Z,-1.79
2018-03-03T15:39:20.813Z,-1.69
2018-03-03T15:41:48.306Z,-1.78
2018-03-03T15:44:16.609Z,-1.91
2018-03-03T15:46:44.143Z,-1.75
2018-03-03T15:49:11.690Z,-1.78
2018-03-03T15:51:39.220Z,-1.80
2018-03-03T15:54:06.741Z,-1.83
2018-03-03T15:56:34.267Z,-1.95
2018-03-03T15:59:01.803Z,-1.95
2018-03-03T16:01:29.344Z,-1.91
2018-03-03T16:03:56.874Z,-2.04
2018-03-03T16:06:24.401Z,-1.96
2018-03-03T16:08:51.922Z,-1.87
2018-03-03T16:11:19.446Z,-1.88
2018-03-03T16:13:46.980Z,-1.94
2018-03-03T16:16:14.498Z,-1.87
2018-03-03T16:18:42.804Z,-2.04
2018-03-03T16:21:10.343Z,-2.13
2018-03-03T16:23:37.870Z,-2.10
2018-03-03T16:26:05.441Z,-2.17
2018-03-03T16:28:32.970Z,-2.12
2018-03-03T16:31:00.494Z,-2.07
2018-03-03T16:33:28.776Z,-2.12
2018-03-03T16:35:56.306Z,-2.15
2018-03-03T16:38:23.823Z,-2.27
2018-03-03T16:40:51.380Z,-2.30
2018-03-03T16:43:18.946Z,-2.18
2018-03-03T16:45:47.425Z,-2.29
2018-03-03T16:48:14.958Z,-2.30
2018-03-03T16:50:42.712Z,-2.36
2018-03-03T16:53:10.269Z,-2.38
2018-03-03T16:55:37.797Z,-2.35
2018-03-03T16:58:05.329Z,-2.30
2018-03-03T17:00:32.858Z,-2.36
2018-03-03T17:03:00.385Z,-2.45
2018-03-03T17:05:27.920Z,-2.38
2018-03-03T17:07:55.437Z,-2.41
2018-03-03T17:10:22.971Z,-2.44
2018-03-03T17:12:50.520Z,-2.53
2018-03-03T17:15:18.051Z,-2.48
2018-03-03T17:17:45.590Z,-2.49
2018-03-03T17:20:13.121Z,-2.45
2018-03-03T17:22:40.658Z,-2.51
2018-03-03T17:25:08.248Z,-2.61
2018-03-03T17:27:35.796Z,-2.53
2018-03-03T17:30:03.334Z,-2.55
2018-03-03T17:32:31.711Z,-2.52
2018-03-03T17:34:59.240Z,-2.53
2018-03-03T17:37:26.766Z,-2.60
2018-03-03T17:39:54.547Z,-2.59
2018-03-03T17:42:22.078Z,-2.55
2018-03-03T17:44:49.625Z,-2.63
2018-03-03T17:47:17.147Z,-2.68
2018-03-03T17:49:44.676Z,-2.67
2018-03-03T17:52:13.257Z,-2.75
2018-03-03T17:54:40.781Z,-2.79
2018-03-03T17:57:08.327Z,-2.73
2018-03-03T17:59:35.888Z,-2.71
2018-03-03T18:02:03.673Z,-2.75
2018-03-03T18:04:31.202Z,-2.84
2018-03-03T18:06:58.728Z,-2.81
2018-03-03T18:09:26.311Z,-2.84
2018-03-03T18:11:59.561Z,-2.84
2018-03-03T18:14:28.745Z,-2.81
2018-03-03T18:16:56.290Z,-2.90
2018-03-03T18:19:35.664Z,-2.87
2018-03-03T18:22:03.253Z,-2.86
2018-03-03T18:24:36.758Z,-2.96
2018-03-03T18:27:04.343Z,-2.93
2018-03-03T18:29:31.903Z,-2.86
2018-03-03T18:31:59.440Z,-2.95
2018-03-03T18:34:26.987Z,-3.00
2018-03-03T18:36:54.567Z,-2.96
2018-03-03T18:39:22.259Z,-3.01
2018-03-03T18:41:49.809Z,-2.96
2018-03-03T18:44:17.325Z,-3.04
2018-03-03T18:46:44.853Z,-3.09
2018-03-03T18:49:12.398Z,-2.97
2018-03-03T18:51:39.954Z,-3.10
2018-03-03T18:54:07.490Z,-3.13
2018-03-03T18:56:35.105Z,-3.13
2018-03-03T18:59:02.647Z,-3.17
2018-03-03T19:01:30.237Z,-3.16
2018-03-03T19:03:57.824Z,-3.15
2018-03-03T19:06:25.352Z,-3.13
2018-03-03T19:08:53.277Z,-3.18
2018-03-03T19:11:20.880Z,-3.27
2018-03-03T19:13:48.406Z,-3.17
2018-03-03T19:16:15.937Z,-3.33
2018-03-03T19:18:43.489Z,-3.30
2018-03-03T19:21:11.051Z,-3.37
2018-03-03T19:23:38.573Z,-3.33
2018-03-03T19:26:06.103Z,-3.41
2018-03-03T19:28:33.631Z,-3.36
2018-03-03T19:31:01.182Z,-3.51
2018-03-03T19:33:28.713Z,-3.47
2018-03-03T19:35:56.242Z,-3.48
2018-03-03T19:38:23.767Z,-3.50
2018-03-03T19:40:51.427Z,-3.60
2018-03-03T19:43:18.950Z,-3.43
2018-03-03T19:45:46.469Z,-3.58
2018-03-03T19:48:14.018Z,-3.60
2018-03-03T19:50:41.550Z,-3.59
2018-03-03T19:53:10.150Z,-3.57
2018-03-03T19:55:38.272Z,-3.72
2018-03-03T19:58:05.813Z,-3.70
2018-03-03T20:00:33.338Z,-3.70
2018-03-03T20:03:00.865Z,-3.78
2018-03-03T20:05:28.417Z,-3.70
2018-03-03T20:07:56.761Z,-3.71
2018-03-03T20:10:24.307Z,-3.78
2018-03-03T20:12:51.836Z,-3.84
2018-03-03T20:15:19.358Z,-3.79
2018-03-03T20:17:46.895Z,-3.90
2018-03-03T20:20:14.435Z,-3.81
2018-03-03T20:22:41.966Z,-3.80
2018-03-03T20:25:10.099Z,-3.86
2018-03-03T20:27:37.631Z,-3.76
2018-03-03T20:30:05.150Z,-3.82
2018-03-03T20:32:32.692Z,-3.80
2018-03-03T20:35:00.256Z,-3.94
2018-03-03T20:37:27.795Z,-3.82
2018-03-03T20:39:55.319Z,-3.95
2018-03-03T20:42:23.606Z,-3.96
2018-03-03T20:44:51.140Z,-3.93
2018-03-03T20:47:18.663Z,-4.02
2018-03-03T20:49:46.182Z,-4.04
2018-03-03T20:52:13.740Z,-4.02
2018-03-03T20:54:41.284Z,-4.17
2018-03-03T20:57:08.880Z,-4.05
2018-03-03T20:59:36.403Z,-4.11
2018-03-03T21:02:03.920Z,-4.12
2018-03-03T21:04:31.442Z,-4.16
2018-03-03T21:06:58.975Z,-4.01
2018-03-03T21:09:26.504Z,-4.14
2018-03-03T21:12:02.456Z,-4.12
2018-03-03T21:14:30.314Z,-4.24
2018-03-03T21:16:57.845Z,-4.19
2018-03-03T21:19:26.268Z,-4.21
2018-03-03T21:21:54.791Z,-4.32
2018-03-03T21:24:22.323Z,-4.27
2018-03-03T21:26:49.869Z,-4.30
2018-03-03T21:29:17.408Z,-4.39
2018-03-03T21:31:44.950Z,-4.44
2018-03-03T21:34:12.505Z,-4.35
2018-03-03T21:36:40.037Z,-4.31
2018-03-03T21:39:07.637Z,-4.43
2018-03-03T21:41:35.176Z,-4.34
2018-03-03T21:44:02.740Z,-4.36
2018-03-03T21:46:30.278Z,-4.52
2018-03-03T21:48:57.831Z,-4.44
2018-03-03T21:51:25.346Z,-4.51
2018-03-03T21:53:52.873Z,-4.54
2018-03-03T21:56:20.394Z,-4.43
2018-03-03T21:58:47.928Z,-4.56
2018-03-03T22:01:15.455Z,-4.50
2018-03-03T22:03:43.420Z,-4.45
2018-03-03T22:06:10.958Z,-4.49
2018-03-03T22:08:39.282Z,-4.51
2018-03-03T22:11:06.818Z,-4.61
2018-03-03T22:13:34.348Z,-4.66
2018-03-03T22:16:01.874Z,-4.59
2018-03-03T22:18:29.403Z,-4.66
2018-03-03T22:20:56.925Z,-4.60
2018-03-03T22:23:24.459Z,-4.58
2018-03-03T22:25:52.022Z,-4.64
2018-03-03T22:28:19.562Z,-4.69
2018-03-03T22:30:47.954Z,-4.82
2018-03-03T22:33:15.483Z,-4.67
2018-03-03T22:35:43.018Z,-4.62
2018-03-03T22:38:10.599Z,-4.86
2018-03-03T22:40:38.996Z,-4.80
2018-03-03T22:43:07.513Z,-4.88
2018-03-03T22:45:35.054Z,-4.86
2018-03-03T22:48:03.483Z,-4.81
2018-03-03T22:50:31.059Z,-4.78
2018-03-03T22:52:58.585Z,-4.93
2018-03-03T22:55:26.606Z,-5.02
2018-03-03T22:57:54.268Z,-4.86
2018-03-03T23:00:21.824Z,-4.92
2018-03-03T23:02:49.350Z,-5.01
2018-03-03T23:05:16.882Z,-4.94
2018-03-03T23:07:44.413Z,-5.05
2018-03-03T23:10:11.965Z,-4.97
2018-03-03T23:12:39.489Z,-4.97
2018-03-03T23:15:07.011Z,-5.07
2018-03-03T23:17:34.584Z,-5.04
2018-03-03T23:20:02.114Z,-5.10
2018-03-03T23:22:29.736Z,-5.10
2018-03-03T23:24:57.722Z,-5.14
2018-03-03T23:27:25.252Z,-5.12
2018-03-03T23:29:52.788Z,-5.08
2018-03-03T23:32:20.318Z,-5.16
2018-03-03T23:34:47.849Z,-5.16
2018-03-03T23:37:16.306Z,-5.14
2018-03-03T23:39:44.413Z,-5.28
2018-03-03T23:42:11.944Z,-5.30
2018-03-03T23:44:39.474Z,-5.20
2018-03-03T23:47:07.701Z,-5.24
2018-03-03T23:49:35.227Z,-5.31
2018-03-03T23:52:03.338Z,-5.28
2018-03-03T23:54:30.861Z,-5.25
2018-03-03T23:56:58.411Z,-5.37
2018-03-03T23:59:25.941Z,-5.30
